Station History

Weather Underground - logo

Station Historical Data
Daily Summary for March 3, 2018 Units:  Metric    English   Both
« Previous Day
Next Day »
Daily Weekly Monthly Yearly Custom
  High: Low: Average:
Temperature: 14.2 °C 5.9 °C 9.1 °C
Dew Point: 8.6 °C 2.3 °C 6.1 °C
Humidity: 95 % 46 % 83 %
Wind Speed: 22.2 km/h 0 km/h 2.4 km/h
Wind Gust: 22.2 km/h - -
Wind:- - SSW
Pressure: 1021.6 hPa 1015.1 hPa -
Precipitation: 6.1 mm    
Historical Graphs
 
 
Tabular Data for March 3, 2018
Time Temperature Dew Point Pressure Wind Wind Speed Wind Gust Humidity Rainfall Rate (Hourly)
00:04 9.3 °C 8.3 °C 1015.8 hPa Calm     93 % 0.25 mm
00:09 9.3 °C 8.3 °C 1015.8 hPa NNW 1.9 km/h   93 % 0.51 mm
00:14 9.4 °C 8.4 °C 1016.1 hPa WNW 1.9 km/h 1.9 km/h 93 % 0.76 mm
00:19 9.5 °C 8.4 °C 1015.8 hPa Calm     93 % 1.02 mm
00:25 9.6 °C 8.5 °C 1015.8 hPa Calm     93 % 1.02 mm
00:30 9.6 °C 8.5 °C 1015.8 hPa Calm     93 % 1.02 mm
00:35 9.6 °C 8.5 °C 1015.8 hPa Calm     93 % 1.02 mm
00:40 9.6 °C 8.6 °C 1015.8 hPa North 1.6 km/h   93 % 1.02 mm
00:45 9.6 °C 8.5 °C 1015.8 hPa NNE 1.9 km/h 1.9 km/h 93 % 1.02 mm
00:50 9.5 °C 8.4 °C 1015.8 hPa NNE 1.9 km/h   93 % 1.02 mm
00:55 9.4 °C 8.4 °C 1015.8 hPa Calm     93 % 0.76 mm
01:00 9.4 °C 8.3 °C 1015.8 hPa NNE 1.9 km/h 1.9 km/h 93 % 0.76 mm
01:05 9.3 °C 8.2 °C 1015.8 hPa Calm     93 % 0.76 mm
01:10 9.2 °C 8.2 °C 1015.8 hPa ENE 1.9 km/h   93 % 0.51 mm
01:15 9.2 °C 8.1 °C 1015.8 hPa ENE 1.9 km/h   93 % 0.25 mm
01:20 9 °C 7.9 °C 1015.8 hPa ENE 1.9 km/h 1.9 km/h 93 % 0 mm
01:25 8.9 °C 7.7 °C 1015.8 hPa ENE 1.9 km/h   92 % 0 mm
01:30 8.8 °C 7.6 °C 1015.8 hPa Calm     92 % 0 mm
01:35 8.7 °C 7.5 °C 1015.8 hPa Calm     92 % 0 mm
01:40 8.7 °C 7.5 °C 1015.5 hPa Calm     92 % 0 mm
01:45 8.7 °C 7.5 °C 1015.5 hPa ENE 1.9 km/h   92 % 0 mm
01:50 8.7 °C 7.5 °C 1015.5 hPa Calm     92 % 0 mm
01:56 8.9 °C 7.7 °C 1015.5 hPa Calm     92 % 0 mm
02:01 8.9 °C 7.7 °C 1015.5 hPa ENE 1.9 km/h   92 % 0 mm
02:06 8.9 °C 7.7 °C 1015.5 hPa Calm   1.3 km/h 92 % 0 mm
02:11 8.8 °C 7.6 °C 1015.5 hPa Calm     92 % 0 mm
02:16 8.8 °C 7.6 °C 1015.5 hPa Calm     92 % 0 mm
02:21 8.8 °C 7.6 °C 1015.5 hPa Calm     92 % 0 mm
02:26 8.8 °C 7.6 °C 1015.5 hPa Calm     92 % 0 mm
02:31 8.8 °C 7.7 °C 1015.5 hPa Calm     93 % 0 mm
02:36 8.7 °C 7.7 °C 1015.5 hPa Calm     93 % 0 mm
02:41 8.8 °C 7.7 °C 1015.1 hPa Calm     93 % 0 mm
02:46 8.8 °C 7.9 °C 1015.1 hPa Calm     94 % 0 mm
02:51 8.8 °C 7.9 °C 1015.1 hPa Calm     94 % 0 mm
02:56 8.9 °C 8 °C 1015.1 hPa Calm     94 % 0 mm
03:01 8.9 °C 7.8 °C 1015.1 hPa Calm     93 % 0 mm
03:06 8.8 °C 7.8 °C 1015.1 hPa Calm     93 % 0 mm
03:11 8.8 °C 7.8 °C 1015.1 hPa Calm     93 % 0 mm
03:16 8.9 °C 8 °C 1015.1 hPa Calm     94 % 0 mm
03:21 8.9 °C 8 °C 1015.5 hPa ENE 1.9 km/h 1.9 km/h 94 % 0.25 mm
03:26 8.8 °C 7.9 °C 1015.1 hPa ENE 1.9 km/h 1.9 km/h 94 % 0.51 mm
03:31 8.8 °C 7.9 °C 1015.1 hPa Calm     94 % 0.51 mm
03:36 8.8 °C 7.9 °C 1015.5 hPa Calm     94 % 0.51 mm
03:41 8.8 °C 7.9 °C 1015.5 hPa Calm     94 % 0.51 mm
03:46 8.8 °C 7.9 °C 1015.5 hPa Calm     94 % 0.51 mm
03:51 8.8 °C 7.9 °C 1015.5 hPa Calm     94 % 0.51 mm
03:56 8.8 °C 7.9 °C 1015.5 hPa Calm   0.2 km/h 94 % 0.51 mm
04:01 8.8 °C 7.9 °C 1015.8 hPa Calm     94 % 0.51 mm
04:06 8.8 °C 7.9 °C 1015.5 hPa ENE 1.9 km/h 1.9 km/h 94 % 0.51 mm
04:11 8.8 °C 7.9 °C 1015.5 hPa ENE 1.9 km/h 1.9 km/h 94 % 0.76 mm
04:16 8.8 °C 7.9 °C 1015.8 hPa ENE 1.9 km/h   94 % 0.76 mm
04:21 8.8 °C 7.9 °C 1015.8 hPa ENE 1.9 km/h 1.9 km/h 94 % 0.51 mm
04:26 8.8 °C 7.9 °C 1015.8 hPa ENE 1.9 km/h   94 % 0.25 mm
04:31 8.8 °C 7.9 °C 1015.8 hPa ENE 3.2 km/h 3.2 km/h 94 % 0.25 mm
04:36 8.8 °C 8.1 °C 1015.8 hPa Calm     95 % 0.25 mm
04:41 8.8 °C 8.1 °C 1015.8 hPa ENE 1.9 km/h   95 % 0.25 mm
04:46 8.8 °C 7.9 °C 1015.8 hPa ENE 1.9 km/h   94 % 0.25 mm
04:51 8.8 °C 8.1 °C 1015.8 hPa ENE 1.9 km/h 1.9 km/h 95 % 0.25 mm
04:56 8.8 °C 7.9 °C 1015.8 hPa ENE 1.9 km/h 1.9 km/h 94 % 0.51 mm
05:01 8.8 °C 7.9 °C 1015.8 hPa ENE 1.9 km/h   94 % 0.51 mm
05:06 8.8 °C 7.9 °C 1015.8 hPa Calm     94 % 0.51 mm
05:11 8.8 °C 7.9 °C 1015.8 hPa Calm     94 % 0.25 mm
05:16 8.7 °C 7.8 °C 1015.8 hPa Calm     94 % 0.25 mm
05:21 8.7 °C 7.8 °C 1016.1 hPa Calm     94 % 0.25 mm
05:26 8.7 °C 7.8 °C 1015.8 hPa Calm     94 % 0.25 mm
05:31 8.7 °C 7.8 °C 1016.1 hPa Calm     94 % 0.25 mm
05:36 8.6 °C 7.7 °C 1016.1 hPa ENE 1.9 km/h 1.9 km/h 94 % 0.25 mm
05:41 8.6 °C 7.7 °C 1016.1 hPa ENE 1.9 km/h   94 % 0.25 mm
05:47 8.6 °C 7.7 °C 1016.1 hPa Calm     94 % 0.25 mm
05:52 8.6 °C 7.8 °C 1016.1 hPa Calm     95 % 0.25 mm
05:57 8.7 °C 7.9 °C 1016.1 hPa Calm     95 % 0 mm
06:02 8.7 °C 7.9 °C 1016.1 hPa Calm     95 % 0.25 mm
06:07 8.7 °C 7.9 °C 1016.1 hPa Calm     95 % 0.25 mm
06:12 8.7 °C 7.9 °C 1016.5 hPa Calm     95 % 0.25 mm
06:17 8.7 °C 7.9 °C 1016.5 hPa ENE 1.6 km/h 1.6 km/h 95 % 0.51 mm
06:22 8.7 °C 7.9 °C 1016.5 hPa ENE 5.6 km/h 5.6 km/h 95 % 0.51 mm
06:27 8.8 °C 8 °C 1016.5 hPa ENE 3.7 km/h 3.7 km/h 95 % 0.76 mm
06:32 8.8 °C 8 °C 1016.5 hPa SSE 5.6 km/h 5.6 km/h 95 % 0.76 mm
06:37 8.8 °C 8 °C 1016.5 hPa ESE 3.2 km/h 3.2 km/h 95 % 0.76 mm
06:42 8.8 °C 8 °C 1016.5 hPa SE 3.7 km/h 3.7 km/h 95 % 0.76 mm
06:47 8.8 °C 8 °C 1016.5 hPa SSE 5.6 km/h 5.6 km/h 95 % 0.76 mm
06:52 8.8 °C 8 °C 1016.8 hPa ESE 3.7 km/h 3.7 km/h 95 % 0.76 mm
06:57 8.8 °C 8.1 °C 1016.8 hPa ESE 3.7 km/h 3.7 km/h 95 % 1.02 mm
07:02 8.8 °C 8.1 °C 1016.8 hPa ESE 1.9 km/h 1.9 km/h 95 % 0.76 mm
07:07 8.8 °C 8.1 °C 1017.2 hPa ESE 1.9 km/h 1.9 km/h 95 % 0.76 mm
07:12 8.8 °C 8.1 °C 1017.2 hPa ESE 3.7 km/h 3.7 km/h 95 % 0.76 mm
07:17 8.9 °C 8.1 °C 1017.2 hPa ESE 1.6 km/h   95 % 0.76 mm
07:22 8.9 °C 8.1 °C 1017.2 hPa Calm     95 % 1.02 mm
07:27 8.9 °C 8.2 °C 1017.2 hPa Calm     95 % 0.76 mm
07:32 8.9 °C 8.2 °C 1017.5 hPa North 1.9 km/h   95 % 0.76 mm
07:37 8.8 °C 8 °C 1017.5 hPa NW 11.1 km/h 11.1 km/h 95 % 0.76 mm
07:42 7.9 °C 6.7 °C 1017.8 hPa NW 5.6 km/h 5.6 km/h 92 % 0.76 mm
07:47 7.5 °C 6.3 °C 1017.8 hPa NW 13 km/h 13 km/h 92 % 1.02 mm
07:52 7.2 °C 6 °C 1017.8 hPa NNW 5.6 km/h 5.6 km/h 92 % 1.02 mm
07:57 7.1 °C 5.9 °C 1017.8 hPa NW 5.6 km/h 5.6 km/h 92 % 0.76 mm
08:02 7.1 °C 6.1 °C 1017.8 hPa NW 3.7 km/h 3.7 km/h 93 % 0.76 mm
08:07 7.1 °C 6 °C 1017.8 hPa NW 3.7 km/h 3.7 km/h 93 % 1.02 mm
08:12 7.1 °C 6 °C 1017.8 hPa NW 3.7 km/h 3.7 km/h 93 % 1.02 mm
08:17 7.1 °C 6 °C 1017.8 hPa NNW 5.6 km/h 5.6 km/h 93 % 0.76 mm
08:22 7.1 °C 6 °C 1018.2 hPa NW 1.9 km/h 1.9 km/h 93 % 0.76 mm
08:27 7.1 °C 6.1 °C 1018.2 hPa NW 3.7 km/h   93 % 0.76 mm
08:32 7.2 °C 6.2 °C 1018.2 hPa Calm   0.2 km/h 93 % 0.76 mm
08:37 7.3 °C 6.3 °C 1018.2 hPa Calm     93 % 0.76 mm
08:42 7.5 °C 6.4 °C 1018.2 hPa Calm     93 % 0.76 mm
08:47 7.6 °C 6.5 °C 1018.2 hPa NW 1.9 km/h   93 % 0.51 mm
08:52 7.7 °C 6.7 °C 1018.2 hPa NW 3.7 km/h 3.7 km/h 93 % 0.51 mm
08:57 7.8 °C 6.8 °C 1018.2 hPa Calm     93 % 0.51 mm
09:02 7.9 °C 6.8 °C 1018.5 hPa Calm     93 % 0.51 mm
09:07 8 °C 6.9 °C 1018.5 hPa Calm     93 % 0.51 mm
09:12 8.2 °C 7.1 °C 1018.5 hPa Calm   0.2 km/h 93 % 0.51 mm
09:17 8.3 °C 7.2 °C 1018.2 hPa East 1.9 km/h 1.9 km/h 93 % 0.51 mm
09:22 8.3 °C 7.3 °C 1018.5 hPa East 1.9 km/h   93 % 0.25 mm
09:27 8.4 °C 7.4 °C 1018.5 hPa East 1.9 km/h 1.9 km/h 93 % 0.25 mm
09:32 8.6 °C 7.3 °C 1018.2 hPa WNW 1.9 km/h 1.9 km/h 92 % 0.25 mm
09:37 8.9 °C 7.9 °C 1018.2 hPa NW 4.8 km/h 4.8 km/h 93 % 0.25 mm
09:42 9.2 °C 8 °C 1018.2 hPa SE 3.7 km/h 3.7 km/h 92 % 0.25 mm
09:47 9.7 °C 8.5 °C 1018.5 hPa SE 1.9 km/h 1.9 km/h 92 % 0.25 mm
09:52 10 °C 8.3 °C 1018.5 hPa NW 5.6 km/h 5.6 km/h 89 % 0.25 mm
09:57 10.3 °C 8.6 °C 1018.5 hPa NE 1.9 km/h 1.9 km/h 89 % 0.25 mm
10:02 10.7 °C 8.5 °C 1018.5 hPa NW 4.8 km/h 4.8 km/h 86 % 0.25 mm
10:07 10.7 °C 7.9 °C 1018.5 hPa SE 5.6 km/h 5.6 km/h 83 % 0 mm
10:12 10.8 °C 7.1 °C 1018.5 hPa NW 5.6 km/h 5.6 km/h 78 % 0 mm
10:18 10.7 °C 7.3 °C 1018.8 hPa NW 5.6 km/h 5.6 km/h 80 % 0 mm
10:23 10.6 °C 6.9 °C 1018.8 hPa WNW 7.4 km/h 7.4 km/h 78 % 0 mm
10:28 10.5 °C 6.6 °C 1018.8 hPa NW 1.9 km/h   77 % 0 mm
10:33 10.5 °C 6.6 °C 1018.8 hPa NW 5.6 km/h 5.6 km/h 77 % 0 mm
10:38 10.4 °C 6.9 °C 1018.8 hPa NW 3.7 km/h 3.7 km/h 79 % 0 mm
10:43 10.4 °C 6.4 °C 1018.8 hPa NNW 5.6 km/h 5.6 km/h 76 % 0 mm
10:48 10.4 °C 6.3 °C 1018.8 hPa NW 3.7 km/h 3.7 km/h 76 % 0 mm
10:53 10.5 °C 6.3 °C 1018.8 hPa NW 4.8 km/h 4.8 km/h 75 % 0 mm
10:58 10.4 °C 6 °C 1018.8 hPa WNW 5.6 km/h 5.6 km/h 74 % 0 mm
11:03 10.4 °C 6.2 °C 1018.8 hPa NW 6.4 km/h 6.4 km/h 75 % 0 mm
11:08 10.6 °C 6.3 °C 1018.8 hPa NW 3.7 km/h 3.7 km/h 75 % 0 mm
11:13 10.5 °C 6.1 °C 1018.8 hPa NW 5.6 km/h 5.6 km/h 74 % 0 mm
11:18 10.5 °C 6.1 °C 1018.8 hPa NW 3.7 km/h 3.7 km/h 74 % 0 mm
11:23 10.6 °C 6.3 °C 1018.8 hPa NW 1.9 km/h 1.9 km/h 75 % 0 mm
11:28 10.7 °C 6.4 °C 1018.8 hPa WNW 5.6 km/h 5.6 km/h 75 % 0 mm
11:33 10.8 °C 6.7 °C 1018.8 hPa NW 5.6 km/h 5.6 km/h 76 % 0 mm
11:38 11.2 °C 6.7 °C 1018.8 hPa WNW 5.6 km/h 5.6 km/h 74 % 0 mm
11:43 11.2 °C 5.7 °C 1018.8 hPa NW 7.4 km/h 7.4 km/h 69 % 0 mm
11:48 11.4 °C 5.9 °C 1018.5 hPa NNW 6.4 km/h 6.4 km/h 69 % 0 mm
11:53 11.6 °C 6.1 °C 1018.5 hPa NW 5.6 km/h 5.6 km/h 69 % 0 mm
11:58 11.8 °C 6.1 °C 1018.5 hPa NNW 3.7 km/h 3.7 km/h 68 % 0 mm
12:03 11.8 °C 6.1 °C 1018.5 hPa NW 5.6 km/h 5.6 km/h 68 % 0 mm
12:08 11.7 °C 5.3 °C 1018.5 hPa WNW 5.6 km/h 5.6 km/h 65 % 0 mm
12:13 11.6 °C 5.8 °C 1018.5 hPa NNW 5.6 km/h 5.6 km/h 68 % 0 mm
12:18 11.7 °C 6.4 °C 1018.2 hPa NW 1.9 km/h   70 % 0 mm
12:23 11.8 °C 5.8 °C 1018.2 hPa West 5.6 km/h 5.6 km/h 67 % 0 mm
12:28 11.8 °C 6.1 °C 1018.2 hPa WNW 1.9 km/h 1.9 km/h 68 % 0 mm
12:33 12 °C 6.1 °C 1018.2 hPa SE 1.9 km/h 1.9 km/h 67 % 0 mm
12:38 12 °C 5.6 °C 1018.2 hPa Calm     65 % 0 mm
12:44 12.1 °C 5.7 °C 1017.8 hPa Calm     65 % 0 mm
12:49 12.1 °C 5.7 °C 1017.8 hPa North 1.9 km/h 1.9 km/h 65 % 0 mm
12:54 12.2 °C 5.8 °C 1017.8 hPa North 1.9 km/h 1.9 km/h 65 % 0 mm
12:59 12.2 °C 5.8 °C 1017.5 hPa NW 3.7 km/h 3.7 km/h 65 % 0 mm
13:04 11.9 °C 4.9 °C 1017.5 hPa NW 3.7 km/h 3.7 km/h 62 % 0 mm
13:09 11.8 °C 4.6 °C 1017.5 hPa NW 5.6 km/h 5.6 km/h 61 % 0 mm
13:14 11.8 °C 4.8 °C 1017.5 hPa NE 3.7 km/h 3.7 km/h 62 % 0 mm
13:19 12.1 °C 5 °C 1017.2 hPa NW 5.6 km/h 5.6 km/h 62 % 0 mm
13:24 12.1 °C 4.8 °C 1017.2 hPa NW 5.6 km/h 5.6 km/h 61 % 0 mm
13:29 12.2 °C 5.2 °C 1017.2 hPa ESE 3.7 km/h 3.7 km/h 62 % 0 mm
13:34 12.4 °C 4.8 °C 1017.2 hPa NW 3.7 km/h 3.7 km/h 60 % 0 mm
13:39 12.4 °C 4.8 °C 1017.2 hPa Calm     60 % 0 mm
13:44 12.9 °C 4.9 °C 1017.2 hPa NW 3.7 km/h 3.7 km/h 58 % 0 mm
13:49 13.3 °C 4.4 °C 1017.2 hPa NW 5.6 km/h 5.6 km/h 55 % 0 mm
13:54 13.1 °C 4.2 °C 1017.2 hPa East 1.9 km/h 1.9 km/h 55 % 0 mm
13:59 13.2 °C 4.3 °C 1016.8 hPa SE 1.9 km/h   55 % 0 mm
14:04 13.3 °C 3.9 °C 1016.8 hPa ENE 1.9 km/h 1.9 km/h 53 % 0 mm
14:09 13.3 °C 3.6 °C 1016.8 hPa NW 3.7 km/h 3.7 km/h 52 % 0 mm
14:14 13.5 °C 3.8 °C 1016.8 hPa SE 3.7 km/h 3.7 km/h 52 % 0 mm
14:19 13.7 °C 4.1 °C 1016.8 hPa NE 5.6 km/h 5.6 km/h 52 % 0 mm
14:24 13.6 °C 3.7 °C 1016.8 hPa WSW 5.6 km/h   51 % 0 mm
14:29 13.6 °C 3.1 °C 1016.8 hPa WNW 3.7 km/h 3.7 km/h 49 % 0 mm
14:34 13.5 °C 3.6 °C 1016.8 hPa WNW 1.9 km/h 1.9 km/h 51 % 0 mm
14:39 13.7 °C 4 °C 1016.8 hPa East 1.9 km/h 1.9 km/h 52 % 0 mm
14:45 14.1 °C 4.4 °C 1016.5 hPa SE 3.7 km/h 3.7 km/h 52 % 0 mm
14:50 14.1 °C 4.1 °C 1016.5 hPa SSE 1.9 km/h 1.9 km/h 51 % 0 mm
14:55 14.2 °C 4.2 °C 1016.5 hPa SSE 5.6 km/h 5.6 km/h 51 % 0 mm
15:00 14.1 °C 3.8 °C 1016.5 hPa NW 1.9 km/h 1.9 km/h 50 % 0 mm
15:05 14.1 °C 2.9 °C 1016.5 hPa NNW 1.9 km/h   47 % 0 mm
15:10 14.1 °C 2.9 °C 1016.5 hPa NE 1.9 km/h 1.9 km/h 47 % 0 mm
15:15 14.2 °C 3.3 °C 1016.1 hPa SE 1.9 km/h 1.9 km/h 48 % 0 mm
15:20 14.2 °C 3.1 °C 1016.1 hPa SE 4.8 km/h 4.8 km/h 47 % 0 mm
15:25 14.2 °C 3 °C 1016.1 hPa SE 3.2 km/h 3.2 km/h 47 % 0 mm
15:30 13.9 °C 2.8 °C 1016.1 hPa SE 3.7 km/h   47 % 0 mm
15:35 13.8 °C 2.3 °C 1016.1 hPa NW 3.2 km/h 3.2 km/h 46 % 0 mm
15:40 13.5 °C 2.4 °C 1016.1 hPa Calm     47 % 0 mm
15:45 13.3 °C 2.8 °C 1016.1 hPa Calm     49 % 0 mm
15:50 13.2 °C 2.7 °C 1016.1 hPa Calm     49 % 0 mm
15:55 13.2 °C 2.7 °C 1015.8 hPa Calm     49 % 0 mm
16:00 13.2 °C 3 °C 1016.1 hPa Calm   0.3 km/h 50 % 0 mm
16:05 13.2 °C 2.9 °C 1015.8 hPa Calm     50 % 0 mm
16:10 13.1 °C 3.2 °C 1016.1 hPa SSE 1.9 km/h   51 % 0 mm
16:15 13.1 °C 2.8 °C 1016.1 hPa Calm     50 % 0 mm
16:21 12.9 °C 2.8 °C 1016.1 hPa Calm     50 % 0 mm
16:26 12.9 °C 3.1 °C 1016.1 hPa Calm     51 % 0 mm
16:31 12.8 °C 4 °C 1016.5 hPa NW 4.8 km/h 4.8 km/h 55 % 0 mm
16:36 11.8 °C 4.5 °C 1016.5 hPa WNW 13 km/h 13 km/h 61 % 0 mm
16:41 10.6 °C 4.7 °C 1016.5 hPa WNW 20.4 km/h 20.4 km/h 67 % 0 mm
16:46 9.8 °C 5 °C 1016.5 hPa West 22.2 km/h 22.2 km/h 72 % 0 mm
16:51 9.2 °C 5.4 °C 1016.8 hPa NW 11.1 km/h 11.1 km/h 77 % 0 mm
16:56 8.6 °C 5.3 °C 1016.8 hPa WNW 13 km/h 13 km/h 80 % 0 mm
17:01 8.2 °C 5.4 °C 1017.2 hPa NW 12.9 km/h 12.9 km/h 83 % 0 mm
17:06 7.9 °C 5.5 °C 1017.5 hPa NNW 9.7 km/h 9.7 km/h 85 % 0 mm
17:11 7.8 °C 5.4 °C 1017.5 hPa WNW 9.3 km/h 9.3 km/h 85 % 0 mm
17:16 7.7 °C 5.2 °C 1017.5 hPa North 9.3 km/h 9.3 km/h 84 % 0.51 mm
17:21 7.6 °C 4.7 °C 1017.5 hPa NW 5.6 km/h 5.6 km/h 82 % 0.76 mm
17:26 7.6 °C 4.7 °C 1017.5 hPa Calm     82 % 1.27 mm
17:31 7.5 °C 4.9 °C 1017.5 hPa NW 6.4 km/h 6.4 km/h 84 % 1.27 mm
17:36 7.5 °C 5.5 °C 1017.8 hPa NNW 6.4 km/h 6.4 km/h 87 % 1.27 mm
17:41 7.5 °C 5.8 °C 1018.2 hPa NNW 4.8 km/h 4.8 km/h 89 % 1.27 mm
17:46 7.4 °C 5.7 °C 1018.2 hPa NW 5.6 km/h 5.6 km/h 89 % 1.27 mm
17:51 7.5 °C 5.9 °C 1017.8 hPa NW 1.9 km/h 1.9 km/h 90 % 1.27 mm
17:56 7.5 °C 5.9 °C 1017.8 hPa NW 3.7 km/h 3.7 km/h 90 % 1.27 mm
18:01 7.5 °C 5.8 °C 1017.8 hPa WNW 3.7 km/h 3.7 km/h 89 % 1.27 mm
18:06 7.4 °C 5.6 °C 1017.8 hPa WNW 5.6 km/h 5.6 km/h 88 % 1.27 mm
18:11 7.4 °C 5.6 °C 1017.8 hPa Calm     88 % 1.27 mm
18:16 7.4 °C 5.6 °C 1017.8 hPa WNW 1.9 km/h 1.9 km/h 88 % 0.76 mm
18:21 7.3 °C 5.3 °C 1017.8 hPa ESE 3.7 km/h 3.7 km/h 87 % 0.51 mm
18:26 7.3 °C 5.4 °C 1018.2 hPa East 3.7 km/h 3.7 km/h 88 % 0 mm
18:31 7.2 °C 5.3 °C 1018.2 hPa ENE 5.6 km/h 5.6 km/h 88 % 0 mm
18:36 7.1 °C 5.3 °C 1017.8 hPa ENE 3.7 km/h 3.7 km/h 88 % 0 mm
18:41 7.1 °C 5.3 °C 1018.2 hPa NNE 1.9 km/h 1.9 km/h 88 % 0 mm
18:46 7.1 °C 5.3 °C 1017.8 hPa SE 1.9 km/h 1.9 km/h 88 % 0 mm
18:51 7.1 °C 4.9 °C 1017.8 hPa Calm   0.6 km/h 86 % 0 mm
18:56 7.2 °C 5 °C 1018.2 hPa ESE 1.9 km/h 1.9 km/h 86 % 0 mm
19:01 7.2 °C 4.8 °C 1018.2 hPa NE 1.9 km/h 1.9 km/h 85 % 0 mm
19:06 7.1 °C 4.8 °C 1018.5 hPa ESE 5.6 km/h 5.6 km/h 85 % 0 mm
19:11 7.1 °C 4.8 °C 1018.5 hPa East 3.7 km/h 3.7 km/h 85 % 0 mm
19:16 7.1 °C 4.9 °C 1018.5 hPa Calm     86 % 0 mm
19:21 7 °C 4.8 °C 1018.5 hPa Calm     86 % 0 mm
19:26 6.8 °C 4.8 °C 1018.5 hPa Calm     87 % 0 mm
19:31 6.7 °C 4.7 °C 1018.5 hPa Calm     87 % 0 mm
19:36 6.5 °C 4.7 °C 1018.8 hPa East 1.9 km/h   88 % 0 mm
19:41 6.3 °C 4.7 °C 1018.8 hPa Calm     89 % 0 mm
19:46 6.2 °C 4.6 °C 1018.8 hPa Calm     89 % 0 mm
19:51 6.1 °C 4.6 °C 1018.8 hPa Calm     90 % 0 mm
19:56 6.1 °C 4.6 °C 1018.8 hPa Calm     90 % 0 mm
20:01 5.9 °C 4.6 °C 1019.2 hPa East 1.9 km/h 1.9 km/h 91 % 0 mm
20:06 5.9 °C 4.6 °C 1019.2 hPa Calm     91 % 0 mm
20:11 6 °C 4.7 °C 1019.2 hPa Calm     91 % 0 mm
20:16 6 °C 4.7 °C 1019.5 hPa Calm     91 % 0 mm
20:21 6.2 °C 4.8 °C 1019.5 hPa Calm     91 % 0 mm
20:26 6.2 °C 4.9 °C 1019.5 hPa Calm     91 % 0 mm
20:31 6.2 °C 4.9 °C 1019.5 hPa Calm     91 % 0 mm
20:36 6.2 °C 4.9 °C 1019.9 hPa Calm     91 % 0 mm
20:41 6.3 °C 5.1 °C 1019.9 hPa East 1.9 km/h 1.9 km/h 92 % 0 mm
20:46 6.3 °C 5.1 °C 1019.9 hPa East 1.9 km/h   92 % 0 mm
20:51 6.3 °C 5.1 °C 1019.9 hPa NW 1.9 km/h 1.9 km/h 92 % 0 mm
20:56 6.3 °C 5.1 °C 1020.2 hPa Calm     92 % 0 mm
21:01 6.3 °C 5.1 °C 1020.2 hPa Calm     92 % 0 mm
21:06 6.3 °C 5.1 °C 1020.2 hPa Calm     92 % 0 mm
21:11 6.3 °C 5.1 °C 1020.2 hPa Calm     92 % 0 mm
21:16 6.2 °C 5 °C 1020.2 hPa Calm     92 % 0 mm
21:21 6.2 °C 4.8 °C 1020.2 hPa Calm     91 % 0 mm
21:26 6.2 °C 4.8 °C 1020.5 hPa Calm     91 % 0 mm
21:31 6.2 °C 4.9 °C 1020.5 hPa WNW 1.9 km/h 1.9 km/h 91 % 0 mm
21:36 6.3 °C 4.9 °C 1020.5 hPa Calm     91 % 0 mm
21:42 6.3 °C 4.9 °C 1020.5 hPa Calm     91 % 0 mm
21:47 6.3 °C 4.9 °C 1020.9 hPa WNW 1.9 km/h   91 % 0 mm
21:52 6.3 °C 4.9 °C 1020.9 hPa WNW 1.9 km/h 1.9 km/h 91 % 0 mm
21:57 6.3 °C 5.1 °C 1020.9 hPa Calm   0.8 km/h 92 % 0 mm
22:02 6.4 °C 5.2 °C 1020.9 hPa Calm     92 % 0 mm
22:07 6.4 °C 5.2 °C 1020.9 hPa Calm     92 % 0 mm
22:12 6.5 °C 5.3 °C 1021.2 hPa Calm     92 % 0 mm
22:17 6.6 °C 5.3 °C 1021.2 hPa Calm     92 % 0.25 mm
22:22 6.6 °C 5.3 °C 1021.2 hPa Calm     92 % 0.25 mm
22:27 6.6 °C 5.4 °C 1021.2 hPa SE 1.9 km/h 1.9 km/h 92 % 0.25 mm
22:32 6.7 °C 5.3 °C 1021.2 hPa NNW 1.9 km/h   91 % 0.25 mm
22:37 6.7 °C 5.3 °C 1021.2 hPa NW 1.9 km/h 1.9 km/h 91 % 0.25 mm
22:42 6.7 °C 5.3 °C 1021.2 hPa Calm     91 % 0.25 mm
22:47 6.7 °C 5.3 °C 1021.2 hPa Calm     91 % 0.25 mm
22:52 6.6 °C 5.1 °C 1021.2 hPa East 3.7 km/h 3.7 km/h 90 % 0.51 mm
22:57 6.5 °C 5 °C 1021.2 hPa Calm     90 % 0.51 mm
23:02 6.4 °C 4.9 °C 1021.2 hPa Calm     90 % 0.51 mm
23:07 6.4 °C 4.9 °C 1021.2 hPa East 1.9 km/h   90 % 0.51 mm
23:12 6.3 °C 4.8 °C 1021.2 hPa Calm     90 % 0.51 mm
23:17 6.3 °C 4.8 °C 1021.2 hPa East 1.6 km/h   90 % 0.25 mm
23:22 6.4 °C 5 °C 1021.2 hPa Calm     91 % 0.25 mm
23:27 6.4 °C 4.9 °C 1021.6 hPa NW 1.9 km/h 1.9 km/h 90 % 0.25 mm
23:32 6.4 °C 4.9 °C 1021.6 hPa NW 1.9 km/h 1.9 km/h 90 % 0.25 mm
23:37 6.4 °C 4.9 °C 1021.6 hPa Calm     90 % 0.25 mm
23:42 6.3 °C 4.9 °C 1021.6 hPa NW 3.7 km/h 3.7 km/h 91 % 0.25 mm
23:47 6.3 °C 4.9 °C 1021.6 hPa WNW 1.9 km/h 1.9 km/h 91 % 0.25 mm
23:52 6.3 °C 4.9 °C 1021.6 hPa WNW 1.9 km/h 1.9 km/h 91 % 0 mm
23:57 6.3 °C 5.1 °C 1021.6 hPa NNW 3.7 km/h 3.7 km/h 92 % 0 mm
Park Place, Exeter, Tulare County, California, USA
Compliments of Weather Underground - 2.75 mb